createdAt,value
2023-02-17T00:03:02.779Z,-2
2023-02-17T00:08:27.257Z,-2
2023-02-17T00:14:04.682Z,-1.9
2023-02-17T00:19:42.292Z,-2
2023-02-17T00:25:04.400Z,-1.8
2023-02-17T00:30:41.411Z,-1.7
2023-02-17T00:36:18.922Z,-1.4
2023-02-17T00:41:56.323Z,-1.8
2023-02-17T00:47:33.231Z,-1.9
2023-02-17T00:53:11.268Z,-2.2
2023-02-17T00:58:48.322Z,-2.3
2023-02-17T01:04:09.964Z,-2.5
2023-02-17T01:09:47.538Z,-2.7
2023-02-17T01:15:09.679Z,-2.7
2023-02-17T01:20:46.885Z,-2.4
2023-02-17T01:26:24.020Z,-2.4
2023-02-17T01:32:01.779Z,-2.1
2023-02-17T01:37:24.173Z,-2
2023-02-17T01:43:01.197Z,-1.4
2023-02-17T01:48:23.644Z,-1
2023-02-17T01:53:44.812Z,-1.1
2023-02-17T01:59:22.389Z,-1
2023-02-17T02:05:00.683Z,-1.9
2023-02-17T02:10:37.430Z,-2.1
2023-02-17T02:16:14.602Z,-2.4
2023-02-17T02:21:51.838Z,-2
2023-02-17T02:27:28.368Z,-2.1
2023-02-17T02:33:06.454Z,-2.1
2023-02-17T02:38:43.823Z,-1.9
2023-02-17T02:44:05.346Z,-1.7
2023-02-17T02:49:27.730Z,-1.3
2023-02-17T02:54:34.298Z,-1.2
2023-02-17T03:00:10.777Z,-1.1
2023-02-17T03:05:47.643Z,-0.9
2023-02-17T03:11:24.872Z,-1.6
2023-02-17T03:17:01.693Z,-1.8
2023-02-17T03:22:38.740Z,-1.6
2023-02-17T03:28:16.344Z,-1.4
2023-02-17T03:33:54.043Z,-1.7
2023-02-17T03:39:16.560Z,-1.3
2023-02-17T03:44:53.258Z,-1.7
2023-02-17T03:50:30.050Z,-1.1
2023-02-17T03:55:51.713Z,-1.3
2023-02-17T04:01:29.218Z,-1.5
2023-02-17T04:07:06.616Z,-1.7
2023-02-17T04:12:44.132Z,-1.6
2023-02-17T04:18:21.622Z,-1
2023-02-17T04:23:58.671Z,-1.2
2023-02-17T04:29:20.008Z,-1.8
2023-02-17T04:34:46.573Z,-2.2
2023-02-17T04:40:26.492Z,-2.2
2023-02-17T04:46:04.993Z,-2
2023-02-17T04:51:41.896Z,-1.6
2023-02-17T04:57:18.640Z,-1.4
2023-02-17T05:02:40.572Z,-1.8
2023-02-17T05:08:18.821Z,-1.6
2023-02-17T05:13:56.062Z,-0.8
2023-02-17T05:19:34.143Z,-0.9
2023-02-17T05:25:12.350Z,-1.2
2023-02-17T05:30:34.129Z,-0.9
2023-02-17T05:36:12.322Z,-0.8
2023-02-17T05:41:50.314Z,-0.8
2023-02-17T05:47:27.857Z,-1.1
2023-02-17T05:53:04.961Z,-0.9
2023-02-17T05:58:42.802Z,-0.4
2023-02-17T06:04:20.881Z,0
2023-02-17T06:09:58.360Z,0.4
2023-02-17T06:15:19.805Z,0.8
2023-02-17T06:20:59.795Z,0.7
2023-02-17T06:26:22.208Z,1
2023-02-17T06:32:00.948Z,1.2
2023-02-17T06:37:37.067Z,1.2
2023-02-17T06:43:14.569Z,1.6
2023-02-17T06:48:52.637Z,1.7
2023-02-17T06:54:29.641Z,2.4
2023-02-17T07:00:06.847Z,2.7
2023-02-17T07:05:45.943Z,3.2
2023-02-17T07:11:07.598Z,3.7
2023-02-17T07:16:29.759Z,4.6
2023-02-17T07:22:08.421Z,5.3
2023-02-17T07:27:45.767Z,5.2
2023-02-17T07:33:07.835Z,5.7
2023-02-17T07:38:30.832Z,6.6
2023-02-17T07:44:09.369Z,6.7
2023-02-17T07:49:48.273Z,6.6
2023-02-17T07:55:25.420Z,6.9
2023-02-17T08:01:03.096Z,7.4
2023-02-17T08:06:40.673Z,8.5
2023-02-17T08:12:20.190Z,9.1
2023-02-17T08:17:57.353Z,10.3
2023-02-17T08:23:34.333Z,11.3
2023-02-17T08:29:12.213Z,11.4
2023-02-17T08:34:50.312Z,11.9
2023-02-17T08:40:27.037Z,11.6
2023-02-17T08:45:48.980Z,11.9
2023-02-17T08:51:28.205Z,12.4
2023-02-17T08:57:02.536Z,12.4
2023-02-17T09:02:40.690Z,13
2023-02-17T09:08:03.946Z,12.9
2023-02-17T09:13:27.887Z,13.3
2023-02-17T09:19:06.050Z,13.4
2023-02-17T09:24:50.715Z,13.6
2023-02-17T09:30:12.631Z,13.8
2023-02-17T09:35:36.216Z,13.8
2023-02-17T09:41:14.988Z,14.3
2023-02-17T09:47:01.585Z,13.8
2023-02-17T09:52:24.901Z,13.9
2023-02-17T09:57:49.110Z,14.3
2023-02-17T10:03:29.729Z,14.1
2023-02-17T10:09:08.263Z,14.8
2023-02-17T10:14:15.590Z,14.5
2023-02-17T10:19:54.705Z,14.6
2023-02-17T10:25:32.214Z,14.7
2023-02-17T10:31:10.399Z,15
2023-02-17T10:36:51.705Z,15
2023-02-17T10:41:58.405Z,15.2
2023-02-17T10:47:08.685Z,14.7
2023-02-17T10:52:34.183Z,15.3
2023-02-17T10:58:10.527Z,14.9
2023-02-17T11:03:33.117Z,15.3
2023-02-17T11:08:38.886Z,15.2
2023-02-17T11:14:16.722Z,15.6
2023-02-17T11:19:57.719Z,15.2
2023-02-17T11:25:21.763Z,15.6
2023-02-17T11:30:59.803Z,15.2
2023-02-17T11:36:38.344Z,15.1
2023-02-17T11:42:00.378Z,15.4
2023-02-17T11:47:37.343Z,15.6
2023-02-17T11:53:14.653Z,15.6
2023-02-17T11:58:52.532Z,15.9
2023-02-17T12:04:29.338Z,15.3
2023-02-17T12:09:52.017Z,15.4
2023-02-17T12:15:13.412Z,15.7
2023-02-17T12:20:20.077Z,15.9
2023-02-17T12:25:59.312Z,16.2
2023-02-17T12:31:21.406Z,16.1
2023-02-17T12:36:43.747Z,16.3
2023-02-17T12:42:05.623Z,15.8
2023-02-17T12:47:27.496Z,15.9
2023-02-17T12:52:51.139Z,16.2
2023-02-17T12:58:14.612Z,16.9
2023-02-17T13:03:36.954Z,16.6
2023-02-17T13:08:58.836Z,16.9
2023-02-17T13:14:04.892Z,16.8
2023-02-17T13:19:26.786Z,16.3
2023-02-17T13:24:49.046Z,16.5
2023-02-17T13:30:10.468Z,16.3
2023-02-17T13:35:32.535Z,16.4
2023-02-17T13:40:55.554Z,16.3
2023-02-17T13:46:19.553Z,16.5
2023-02-17T13:51:57.308Z,16.3
2023-02-17T13:57:21.116Z,16.8
2023-02-17T14:02:52.394Z,16.4
2023-02-17T14:08:14.481Z,15.9
2023-02-17T14:13:37.115Z,15.8
2023-02-17T14:19:17.306Z,15.1
2023-02-17T14:25:04.544Z,15.3
2023-02-17T14:30:41.990Z,15.6
2023-02-17T14:36:19.307Z,15.4
2023-02-17T14:41:56.968Z,15
2023-02-17T14:47:35.074Z,14.7
2023-02-17T14:52:58.268Z,14.5
2023-02-17T14:58:35.240Z,14.3
2023-02-17T15:04:12.605Z,14.1
2023-02-17T15:09:54.663Z,13.9
2023-02-17T15:15:31.333Z,13.6
2023-02-17T15:21:09.294Z,13.6
2023-02-17T15:26:51.192Z,13.4
2023-02-17T15:32:30.865Z,13.3
2023-02-17T15:38:09.172Z,13.5
2023-02-17T15:49:13.319Z,12.5
2023-02-17T15:54:36.321Z,11.9
2023-02-17T16:00:14.197Z,11.4
2023-02-17T16:05:52.862Z,10.9
2023-02-17T16:11:30.118Z,10.8
2023-02-17T16:17:07.678Z,10.6
2023-02-17T16:22:45.334Z,10.6
2023-02-17T16:28:08.150Z,10.5
2023-02-17T16:33:31.795Z,10.3
2023-02-17T16:38:55.961Z,10
2023-02-17T16:44:34.285Z,9.8
2023-02-17T16:50:14.691Z,9.3
2023-02-17T16:55:52.426Z,9
2023-02-17T17:01:30.061Z,9.1
2023-02-17T17:07:09.217Z,9
2023-02-17T17:13:07.014Z,8.6
2023-02-17T17:18:29.344Z,8.4
2023-02-17T17:24:06.136Z,8.5
2023-02-17T17:29:43.851Z,8.8
2023-02-17T17:35:06.895Z,8.6
2023-02-17T17:40:31.233Z,8.6
2023-02-17T17:45:55.595Z,8.4
2023-02-17T17:51:00.123Z,8
2023-02-17T17:56:37.391Z,7.8
2023-02-17T18:02:18.629Z,7.3
2023-02-17T18:07:39.818Z,7.1
2023-02-17T18:13:30.292Z,7.1
2023-02-17T18:19:07.809Z,6.9
2023-02-17T18:24:45.178Z,6.9
2023-02-17T18:30:26.632Z,7.1
2023-02-17T18:36:05.403Z,7
2023-02-17T18:41:43.327Z,5.8
2023-02-17T18:47:20.365Z,5.1
2023-02-17T18:52:42.579Z,4.8
2023-02-17T18:58:03.798Z,4.6
2023-02-17T19:03:41.037Z,4.4
2023-02-17T19:09:18.101Z,4.5
2023-02-17T19:14:54.272Z,5.2
2023-02-17T19:20:31.535Z,5.3
2023-02-17T19:26:08.945Z,5.4
2023-02-17T19:31:47.152Z,5.3
2023-02-17T19:37:24.205Z,5.1
2023-02-17T19:43:04.140Z,4.8
2023-02-17T19:48:26.142Z,4.8
2023-02-17T19:54:03.117Z,4.9
2023-02-17T19:59:40.351Z,5
2023-02-17T20:05:01.959Z,4.6
2023-02-17T20:10:39.170Z,4.4
2023-02-17T20:16:20.764Z,4.4
2023-02-17T20:21:57.800Z,4.1
2023-02-17T20:27:35.177Z,4.8
2023-02-17T20:32:57.585Z,5.1
2023-02-17T20:38:35.762Z,4.4
2023-02-17T20:43:57.805Z,3.8
2023-02-17T20:49:37.215Z,3.2
2023-02-17T20:55:14.674Z,3.1
2023-02-17T21:00:52.473Z,3.4
2023-02-17T21:06:30.810Z,3.4
2023-02-17T21:12:07.148Z,3.4
2023-02-17T21:17:45.123Z,3.4
2023-02-17T21:23:22.445Z,3.2
2023-02-17T21:28:59.549Z,3.1
2023-02-17T21:34:37.308Z,3.3
2023-02-17T21:40:14.292Z,3.3
2023-02-17T21:45:37.939Z,3.5
2023-02-17T21:51:00.571Z,3.9
2023-02-17T21:56:23.126Z,3.6
2023-02-17T22:01:59.631Z,3.1
2023-02-17T22:07:20.849Z,3.1
2023-02-17T22:12:41.712Z,3.2
2023-02-17T22:18:18.003Z,2.9
2023-02-17T22:23:55.153Z,2.8
2023-02-17T22:29:32.148Z,2.8
2023-02-17T22:35:10.652Z,2.7
2023-02-17T22:40:46.716Z,2.5
2023-02-17T22:46:24.192Z,2.3
2023-02-17T22:52:01.723Z,2.4
2023-02-17T22:57:39.051Z,1.9
2023-02-17T23:03:00.486Z,1.6
2023-02-17T23:08:25.813Z,1.4
2023-02-17T23:14:03.365Z,1.8
2023-02-17T23:19:41.128Z,1.8
2023-02-17T23:25:18.450Z,1.7
2023-02-17T23:30:55.764Z,1.8
2023-02-17T23:36:32.977Z,1.8
2023-02-17T23:41:55.075Z,1.8
2023-02-17T23:47:33.172Z,1.4
2023-02-17T23:53:11.297Z,1.4
2023-02-17T23:58:48.510Z,1.4
